Amor, Minnesota
Current Conditions -  °F | °C
As of 6:34 AM on Saturday 01 Nov 2014 (Local Time) from KFFM Reporting Station
Clear Clear  
Wind Chill: 16°   Ceiling: Unl
Heat Index: 28°   Visibility: 10mi
Dew Point: 16°   Wind: 17mph
Humidity: 59%   Direction: 160°SSE
Pressure: 30.31"   Gusts: 22mph
Location:  46.3166°N, 95.7183°W
Report Text: KFFM 011134Z AUTO 16015G19KT 10SM CLR M02/M09 A3031 RMK AO2
Loading
Personal Weather Stations






























Interactive Weather Map
Tropical Storm Tracking
New forecast layout! Learn more

10-Day Weather Forecast

Advertisements
Track Severe Weather on mobile